createdAt,value
2019-02-11T00:01:47.830Z,96306.36
2019-02-11T00:04:14.804Z,96305.64
2019-02-11T00:06:43.211Z,96291.23
2019-02-11T00:09:09.955Z,96281.54
2019-02-11T00:11:36.858Z,96278.95
2019-02-11T00:14:03.684Z,96277.59
2019-02-11T00:16:30.618Z,96281.30
2019-02-11T00:18:57.243Z,96269.39
2019-02-11T00:21:24.119Z,96271.93
2019-02-11T00:23:50.733Z,96258.36
2019-02-11T00:26:17.397Z,96253.97
2019-02-11T00:28:44.440Z,96246.36
2019-02-11T00:31:11.433Z,96242.72
2019-02-11T00:33:38.329Z,96241.17
2019-02-11T00:36:04.935Z,96251.77
2019-02-11T00:38:31.564Z,96255.94
2019-02-11T00:40:58.373Z,96257.38
2019-02-11T00:43:24.975Z,96253.53
2019-02-11T00:45:51.602Z,96252.39
2019-02-11T00:48:18.578Z,96250.52
2019-02-11T00:50:47.761Z,96247.89
2019-02-11T00:53:14.583Z,96248.17
2019-02-11T00:55:43.101Z,96237.38
2019-02-11T00:58:09.798Z,96246.72
2019-02-11T01:00:36.727Z,96242.28
2019-02-11T01:03:03.441Z,96233.23
2019-02-11T01:05:30.056Z,96237.20
2019-02-11T01:10:41.206Z,96239.58
2019-02-11T01:13:07.980Z,96237.31
2019-02-11T01:15:34.942Z,96232.34
2019-02-11T01:18:01.679Z,96232.95
2019-02-11T01:20:28.421Z,96219.92
2019-02-11T01:22:55.311Z,96205.80
2019-02-11T01:25:21.980Z,96201.62
2019-02-11T01:27:48.906Z,96207.05
2019-02-11T01:30:15.603Z,96198.20
2019-02-11T01:32:42.258Z,96191.55
2019-02-11T01:35:08.856Z,96183.85
2019-02-11T01:37:35.442Z,96178.94
2019-02-11T01:40:02.068Z,96181.22
2019-02-11T01:42:28.698Z,96181.03
2019-02-11T01:44:55.538Z,96181.42
2019-02-11T01:47:22.725Z,96185.22
2019-02-11T01:49:49.485Z,96186.72
2019-02-11T01:52:16.090Z,96186.39
2019-02-11T01:54:43.112Z,96187.61
2019-02-11T01:57:10.348Z,96187.04
2019-02-11T01:59:37.145Z,96183.59
2019-02-11T02:02:04.286Z,96189.39
2019-02-11T02:04:31.462Z,96180.30
2019-02-11T02:06:58.362Z,96170.55
2019-02-11T02:09:25.552Z,96167.22
2019-02-11T02:11:52.161Z,96165.13
2019-02-11T02:14:18.878Z,96174.54
2019-02-11T02:16:46.215Z,96174.83
2019-02-11T02:19:14.280Z,96167.46
2019-02-11T02:21:41.068Z,96165.11
2019-02-11T02:24:07.734Z,96169.53
2019-02-11T02:26:34.362Z,96173.22
2019-02-11T02:29:02.281Z,96173.97
2019-02-11T02:31:28.962Z,96179.92
2019-02-11T02:33:55.727Z,96191.83
2019-02-11T02:36:22.504Z,96187.89
2019-02-11T02:38:49.182Z,96192.81
2019-02-11T02:41:16.037Z,96197.08
2019-02-11T02:43:55.741Z,96207.19
2019-02-11T02:46:20.692Z,96194.95
2019-02-11T02:48:49.570Z,96200.64
2019-02-11T02:51:17.376Z,96211.46
2019-02-11T02:53:45.948Z,96209.55
2019-02-11T02:56:13.366Z,96207.66
2019-02-11T02:58:40.726Z,96213.37
2019-02-11T03:01:08.599Z,96211.17
2019-02-11T03:03:36.283Z,96205.08
2019-02-11T03:06:04.405Z,96200.53
2019-02-11T03:08:31.798Z,96205.77
2019-02-11T03:11:00.991Z,96206.20
2019-02-11T03:13:31.239Z,96201.17
2019-02-11T03:15:57.922Z,96189.92
2019-02-11T03:18:24.681Z,96176.88
2019-02-11T03:20:51.959Z,96177.86
2019-02-11T03:23:19.149Z,96188.35
2019-02-11T03:25:46.890Z,96183.39
2019-02-11T03:28:14.077Z,96186.30
2019-02-11T03:30:41.027Z,96189.37
2019-02-11T03:33:08.686Z,96186.94
2019-02-11T03:35:36.757Z,96184.86
2019-02-11T03:38:04.209Z,96184.47
2019-02-11T03:40:33.182Z,96186.69
2019-02-11T03:43:00.428Z,96197.81
2019-02-11T03:45:29.041Z,96209.20
2019-02-11T03:47:56.531Z,96214.61
2019-02-11T03:50:23.972Z,96211.30
2019-02-11T03:52:50.714Z,96218.91
2019-02-11T03:55:17.827Z,96228.78
2019-02-11T03:57:45.200Z,96230.41
2019-02-11T04:00:13.579Z,96222.34
2019-02-11T04:02:40.706Z,96221.15
2019-02-11T04:05:08.199Z,96224.95
2019-02-11T04:07:38.942Z,96235.04
2019-02-11T04:10:07.023Z,96244.61
2019-02-11T04:12:35.959Z,96253.78
2019-02-11T04:15:03.287Z,96239.88
2019-02-11T04:17:30.367Z,96247.55
2019-02-11T04:19:57.880Z,96245.52
2019-02-11T04:22:25.630Z,96245.41
2019-02-11T04:24:53.553Z,96255.98
2019-02-11T04:27:24.761Z,96283.53
2019-02-11T04:29:56.140Z,96298.03
2019-02-11T04:32:24.968Z,96295.90
2019-02-11T04:34:52.067Z,96297.92
2019-02-11T04:37:18.740Z,96307.20
2019-02-11T04:39:47.063Z,96308.80
2019-02-11T04:42:13.730Z,96303.06
2019-02-11T04:44:40.345Z,96291.97
2019-02-11T04:47:06.930Z,96282.67
2019-02-11T04:49:33.839Z,96283.98
2019-02-11T04:52:01.040Z,96273.91
2019-02-11T04:54:27.850Z,96270.75
2019-02-11T04:56:54.800Z,96267.88
2019-02-11T04:59:21.435Z,96263.03
2019-02-11T05:01:48.029Z,96252.80
2019-02-11T05:04:14.955Z,96258.52
2019-02-11T05:06:41.655Z,96250.56
2019-02-11T05:09:08.248Z,96252.05
2019-02-11T05:11:35.014Z,96261.34
2019-02-11T05:14:01.731Z,96247.42
2019-02-11T05:16:28.635Z,96238.16
2019-02-11T05:18:55.256Z,96242.09
2019-02-11T05:21:22.212Z,96233.44
2019-02-11T05:23:49.392Z,96235.23
2019-02-11T05:26:17.594Z,96248.75
2019-02-11T05:28:44.256Z,96257.50
2019-02-11T05:31:10.918Z,96258.52
2019-02-11T05:33:37.519Z,96264.16
2019-02-11T05:36:04.416Z,96263.55
2019-02-11T05:38:31.300Z,96274.81
2019-02-11T05:40:57.913Z,96287.88
2019-02-11T05:43:24.630Z,96280.53
2019-02-11T05:45:51.702Z,96272.66
2019-02-11T05:48:18.605Z,96268.80
2019-02-11T05:50:45.242Z,96256.05
2019-02-11T05:53:11.883Z,96258.28
2019-02-11T05:55:38.713Z,96261.69
2019-02-11T05:58:05.377Z,96258.38
2019-02-11T06:00:32.043Z,96271.08
2019-02-11T06:02:58.964Z,96266.75
2019-02-11T06:05:25.588Z,96272.39
2019-02-11T06:07:52.319Z,96271.07
2019-02-11T06:10:19.105Z,96267.03
2019-02-11T06:12:45.774Z,96281.14
2019-02-11T06:15:12.341Z,96296.91
2019-02-11T06:17:39.194Z,96298.73
2019-02-11T06:20:06.125Z,96302.88
2019-02-11T06:22:32.716Z,96312.05
2019-02-11T06:24:59.339Z,96313.08
2019-02-11T06:27:26.283Z,96331.29
2019-02-11T06:29:52.914Z,96339.42
2019-02-11T06:32:19.557Z,96345.86
2019-02-11T06:34:46.406Z,96354.78
2019-02-11T06:37:13.569Z,96372.99
2019-02-11T06:39:40.527Z,96380.00
2019-02-11T06:42:07.456Z,96384.81
2019-02-11T06:44:38.490Z,96385.22
2019-02-11T06:47:07.298Z,96401.52
2019-02-11T06:49:37.503Z,96411.41
2019-02-11T06:52:04.079Z,96412.90
2019-02-11T06:54:33.004Z,96416.53
2019-02-11T06:57:01.181Z,96419.05
2019-02-11T06:59:30.471Z,96428.06
2019-02-11T07:01:59.436Z,96437.37
2019-02-11T07:04:26.397Z,96450.39
2019-02-11T07:06:53.024Z,96451.55
2019-02-11T07:09:19.940Z,96459.22
2019-02-11T07:11:46.849Z,96457.50
2019-02-11T07:14:13.552Z,96464.58
2019-02-11T07:16:40.196Z,96466.78
2019-02-11T07:19:07.144Z,96459.81
2019-02-11T07:21:34.299Z,96452.11
2019-02-11T07:24:01.528Z,96447.88
2019-02-11T07:26:28.239Z,96446.86
2019-02-11T07:28:55.239Z,96462.33
2019-02-11T07:31:22.342Z,96460.05
2019-02-11T07:33:49.695Z,96470.45
2019-02-11T07:36:17.973Z,96462.94
2019-02-11T07:38:45.748Z,96454.77
2019-02-11T07:41:12.390Z,96445.84
2019-02-11T07:43:40.090Z,96445.15
2019-02-11T07:46:07.699Z,96448.92
2019-02-11T07:48:34.735Z,96449.34
2019-02-11T07:51:03.199Z,96459.50
2019-02-11T07:53:29.821Z,96480.31
2019-02-11T07:55:56.608Z,96480.45
2019-02-11T07:58:24.581Z,96477.23
2019-02-11T08:00:52.226Z,96477.11
2019-02-11T08:03:20.297Z,96490.44
2019-02-11T08:05:46.974Z,96491.34
2019-02-11T08:08:13.742Z,96480.80
2019-02-11T08:10:40.764Z,96480.17
2019-02-11T08:13:07.394Z,96491.88
2019-02-11T08:15:38.590Z,96490.12
2019-02-11T08:18:03.336Z,96491.36
2019-02-11T08:20:32.427Z,96474.33
2019-02-11T08:23:11.037Z,96478.73
2019-02-11T08:25:32.066Z,96473.56
2019-02-11T08:27:58.996Z,96485.08
2019-02-11T08:30:26.229Z,96482.59
2019-02-11T08:32:53.499Z,96488.13
2019-02-11T08:35:20.498Z,96495.09
2019-02-11T08:37:50.162Z,96491.88
2019-02-11T08:40:16.513Z,96494.02
2019-02-11T08:42:43.200Z,96488.34
2019-02-11T08:45:09.843Z,96502.05
2019-02-11T08:47:36.569Z,96494.80
2019-02-11T08:50:03.312Z,96497.63
2019-02-11T08:52:30.531Z,96512.16
2019-02-11T08:54:57.500Z,96508.54
2019-02-11T08:57:24.390Z,96512.97
2019-02-11T08:59:51.273Z,96512.25
2019-02-11T09:02:17.943Z,96505.98
2019-02-11T09:04:44.585Z,96511.61
2019-02-11T09:07:11.432Z,96528.30
2019-02-11T09:09:38.103Z,96523.44
2019-02-11T09:12:04.888Z,96521.22
2019-02-11T09:14:31.625Z,96520.74
2019-02-11T09:16:58.354Z,96534.77
2019-02-11T09:19:24.948Z,96547.09
2019-02-11T09:21:51.739Z,96556.78
2019-02-11T09:24:19.354Z,96560.62
2019-02-11T09:26:46.003Z,96557.25
2019-02-11T09:29:12.869Z,96558.16
2019-02-11T09:31:39.553Z,96559.05
2019-02-11T09:34:06.169Z,96559.75
2019-02-11T09:36:33.113Z,96557.67
2019-02-11T09:39:00.057Z,96553.97
2019-02-11T09:41:26.685Z,96561.17
2019-02-11T09:43:53.481Z,96571.59
2019-02-11T09:46:21.680Z,96569.30
2019-02-11T09:48:48.308Z,96570.34
2019-02-11T09:51:15.223Z,96562.91
2019-02-11T09:53:41.851Z,96564.17
2019-02-11T09:56:08.662Z,96570.17
2019-02-11T09:58:35.521Z,96575.05
2019-02-11T10:01:02.302Z,96576.11
2019-02-11T10:03:29.073Z,96573.89
2019-02-11T10:05:55.765Z,96578.58
2019-02-11T10:08:22.523Z,96592.86
2019-02-11T10:10:49.443Z,96597.04
2019-02-11T10:13:16.334Z,96597.12
2019-02-11T10:15:43.103Z,96597.86
2019-02-11T10:18:09.708Z,96605.55
2019-02-11T10:20:36.448Z,96615.05
2019-02-11T10:23:03.669Z,96608.84
2019-02-11T10:25:30.615Z,96604.94
2019-02-11T10:27:57.955Z,96606.29
2019-02-11T10:30:24.617Z,96611.39
2019-02-11T10:32:51.956Z,96601.34
2019-02-11T10:35:18.745Z,96596.38
2019-02-11T10:37:45.688Z,96603.91
2019-02-11T10:40:12.341Z,96599.90
2019-02-11T10:42:38.987Z,96595.95
2019-02-11T10:45:06.049Z,96601.92
2019-02-11T10:47:32.855Z,96592.41
2019-02-11T10:49:59.986Z,96590.64
2019-02-11T10:52:30.209Z,96590.88
2019-02-11T10:54:57.093Z,96598.51
2019-02-11T10:57:24.206Z,96596.20
2019-02-11T10:59:52.362Z,96593.72
2019-02-11T11:02:19.078Z,96596.72
2019-02-11T11:04:46.048Z,96609.30
2019-02-11T11:07:13.191Z,96609.52
2019-02-11T11:09:40.387Z,96605.53
2019-02-11T11:12:07.152Z,96605.14
2019-02-11T11:14:34.357Z,96602.30
2019-02-11T11:17:01.157Z,96600.22
2019-02-11T11:19:27.776Z,96609.06
2019-02-11T11:21:54.456Z,96611.72
2019-02-11T11:24:22.677Z,96619.31
2019-02-11T11:26:49.856Z,96619.22
2019-02-11T11:29:16.499Z,96624.06
2019-02-11T11:31:43.377Z,96627.53
2019-02-11T11:34:10.016Z,96620.29
2019-02-11T11:36:36.685Z,96628.64
2019-02-11T11:39:03.866Z,96635.54
2019-02-11T11:41:30.902Z,96639.67
2019-02-11T11:43:57.625Z,96645.78
2019-02-11T11:46:24.788Z,96647.50
2019-02-11T11:48:53.001Z,96671.56
2019-02-11T11:51:19.659Z,96678.94
2019-02-11T11:53:46.256Z,96675.83
2019-02-11T11:56:13.008Z,96676.58
2019-02-11T11:58:40.442Z,96680.25
2019-02-11T12:01:07.048Z,96694.02
2019-02-11T12:03:33.950Z,96686.59
2019-02-11T12:06:00.674Z,96693.28
2019-02-11T12:08:27.268Z,96694.67
2019-02-11T12:10:54.205Z,96699.80
2019-02-11T12:13:23.358Z,96703.41
2019-02-11T12:15:49.660Z,96720.77
2019-02-11T12:18:16.357Z,96715.50
2019-02-11T12:20:43.207Z,96715.46
2019-02-11T12:23:09.852Z,96718.14
2019-02-11T12:25:36.786Z,96728.69
2019-02-11T12:28:03.887Z,96723.45
2019-02-11T12:30:30.789Z,96723.95
2019-02-11T12:32:57.399Z,96724.26
2019-02-11T12:35:24.547Z,96716.14
2019-02-11T12:37:51.515Z,96718.80
2019-02-11T12:40:18.154Z,96725.11
2019-02-11T12:42:44.806Z,96722.48
2019-02-11T12:45:12.023Z,96719.12
2019-02-11T12:47:38.659Z,96712.23
2019-02-11T12:50:05.826Z,96702.84
2019-02-11T12:52:32.771Z,96715.13
2019-02-11T12:55:00.518Z,96716.62
2019-02-11T12:57:27.826Z,96710.89
2019-02-11T12:59:54.785Z,96707.55
2019-02-11T13:02:21.725Z,96709.44
2019-02-11T13:04:48.466Z,96724.52
2019-02-11T13:07:15.296Z,96718.14
2019-02-11T13:09:42.158Z,96729.70
2019-02-11T13:12:08.932Z,96731.22
2019-02-11T13:14:35.644Z,96735.59
2019-02-11T13:17:14.838Z,96723.53
2019-02-11T13:19:31.406Z,96743.00
2019-02-11T13:21:59.134Z,96739.09
2019-02-11T13:24:26.105Z,96755.66
2019-02-11T13:26:54.449Z,96747.91
2019-02-11T13:29:21.137Z,96754.81
2019-02-11T13:31:47.726Z,96749.28
2019-02-11T13:34:14.440Z,96753.77
2019-02-11T13:36:41.287Z,96761.52
2019-02-11T13:39:08.521Z,96756.08
2019-02-11T13:41:35.441Z,96757.77
2019-02-11T13:44:02.271Z,96766.81
2019-02-11T13:46:28.866Z,96774.29
2019-02-11T13:48:55.857Z,96777.17
2019-02-11T13:51:22.472Z,96777.62
2019-02-11T13:53:49.123Z,96790.40
2019-02-11T13:56:15.843Z,96797.43
2019-02-11T13:58:42.785Z,96803.81
2019-02-11T14:01:09.502Z,96818.41
2019-02-11T14:03:36.696Z,96810.77
2019-02-11T14:06:03.660Z,96826.66
2019-02-11T14:08:30.900Z,96829.70
2019-02-11T14:10:58.668Z,96825.33
2019-02-11T14:13:25.829Z,96831.88
2019-02-11T14:15:52.623Z,96847.43
2019-02-11T14:18:19.649Z,96830.09
2019-02-11T14:20:50.035Z,96838.81
2019-02-11T14:23:15.008Z,96832.61
2019-02-11T14:25:45.776Z,96832.77
2019-02-11T14:28:10.213Z,96836.26
2019-02-11T14:30:36.903Z,96841.02
2019-02-11T14:33:04.214Z,96844.30
2019-02-11T14:35:31.033Z,96857.08
2019-02-11T14:38:01.800Z,96856.44
2019-02-11T14:40:26.626Z,96860.13
2019-02-11T14:42:53.298Z,96864.96
2019-02-11T14:45:20.194Z,96878.30
2019-02-11T14:50:18.724Z,96882.41
2019-02-11T14:52:45.297Z,96873.17
2019-02-11T14:55:12.557Z,96880.15
2019-02-11T14:57:39.323Z,96878.78
2019-02-11T15:00:06.020Z,96886.12
2019-02-11T15:02:32.672Z,96883.20
2019-02-11T15:04:59.570Z,96887.45
2019-02-11T15:07:28.621Z,96885.52
2019-02-11T15:09:56.840Z,96885.63
2019-02-11T15:12:23.601Z,96892.95
2019-02-11T15:14:50.545Z,96883.13
2019-02-11T15:17:17.190Z,96887.84
2019-02-11T15:19:43.791Z,96886.82
2019-02-11T15:22:10.600Z,96894.72
2019-02-11T15:24:37.242Z,96885.72
2019-02-11T15:27:03.947Z,96904.25
2019-02-11T15:29:31.110Z,96899.50
2019-02-11T15:31:58.062Z,96894.53
2019-02-11T15:34:25.722Z,96909.55
2019-02-11T15:36:52.285Z,96899.94
2019-02-11T15:39:18.908Z,96909.37
2019-02-11T15:41:45.552Z,96904.13
2019-02-11T15:44:12.288Z,96906.58
2019-02-11T15:46:39.038Z,96915.69
2019-02-11T15:49:06.034Z,96912.34
2019-02-11T15:51:32.673Z,96915.47
2019-02-11T15:53:59.303Z,96915.16
2019-02-11T15:56:27.378Z,96920.51
2019-02-11T15:58:54.217Z,96932.84
2019-02-11T16:01:21.331Z,96916.78
2019-02-11T16:03:48.697Z,96936.06
2019-02-11T16:06:15.542Z,96939.14
2019-02-11T16:08:42.663Z,96942.41
2019-02-11T16:11:09.553Z,96938.41
2019-02-11T16:13:36.376Z,96957.73
2019-02-11T16:16:03.358Z,96966.06
2019-02-11T16:18:30.464Z,96953.53
2019-02-11T16:20:57.844Z,96958.91
2019-02-11T16:23:24.577Z,96957.47
2019-02-11T16:25:51.770Z,96968.02
2019-02-11T16:28:18.590Z,96973.97
2019-02-11T16:30:46.176Z,96988.38
2019-02-11T16:33:13.171Z,96997.50
2019-02-11T16:35:40.013Z,96976.33
2019-02-11T16:38:06.743Z,96979.75
2019-02-11T16:40:33.581Z,96990.94
2019-02-11T16:45:29.735Z,96998.39
2019-02-11T16:47:56.701Z,96989.06
2019-02-11T16:50:23.342Z,97006.53
2019-02-11T16:52:50.486Z,97021.91
2019-02-11T16:55:17.195Z,97025.17
2019-02-11T16:57:43.906Z,97033.77
2019-02-11T17:00:10.669Z,97029.53
2019-02-11T17:02:37.352Z,97042.88
2019-02-11T17:05:04.260Z,97015.19
2019-02-11T17:07:31.349Z,97046.39
2019-02-11T17:09:58.046Z,97054.88
2019-02-11T17:12:25.025Z,97051.34
2019-02-11T17:14:51.817Z,97057.13
2019-02-11T17:17:18.805Z,97063.38
2019-02-11T17:19:45.600Z,97064.83
2019-02-11T17:22:12.468Z,97077.62
2019-02-11T17:24:39.267Z,97074.50
2019-02-11T17:27:06.200Z,97074.37
2019-02-11T17:29:33.719Z,97086.76
2019-02-11T17:32:00.392Z,97081.89
2019-02-11T17:34:27.372Z,97100.48
2019-02-11T17:36:54.080Z,97105.88
2019-02-11T17:39:20.800Z,97116.52
2019-02-11T17:41:47.414Z,97108.59
2019-02-11T17:44:14.093Z,97108.39
2019-02-11T17:46:40.879Z,97121.61
2019-02-11T17:49:07.634Z,97092.76
2019-02-11T17:51:34.322Z,97120.13
2019-02-11T17:54:02.141Z,97116.09
2019-02-11T17:56:28.809Z,97114.05
2019-02-11T17:58:55.439Z,97112.87
2019-02-11T18:01:22.154Z,97129.03
2019-02-11T18:03:48.908Z,97115.44
2019-02-11T18:06:15.662Z,97119.17
2019-02-11T18:08:42.310Z,97123.38
2019-02-11T18:11:08.970Z,97121.61
2019-02-11T18:13:35.720Z,97141.78
2019-02-11T18:16:03.564Z,97132.64
2019-02-11T18:18:30.455Z,97121.73
2019-02-11T18:20:57.101Z,97138.87
2019-02-11T18:23:24.099Z,97124.12
2019-02-11T18:25:50.735Z,97128.48
2019-02-11T18:28:17.697Z,97112.54
2019-02-11T18:30:44.431Z,97137.23
2019-02-11T18:33:11.377Z,97123.66
2019-02-11T18:35:38.659Z,97131.73
2019-02-11T18:38:05.515Z,97142.45
2019-02-11T18:40:32.638Z,97155.41
2019-02-11T18:42:59.585Z,97155.16
2019-02-11T18:45:29.147Z,97161.98
2019-02-11T18:47:58.451Z,97172.73
2019-02-11T18:50:28.351Z,97171.27
2019-02-11T18:52:59.995Z,97184.20
2019-02-11T18:55:25.838Z,97193.40
2019-02-11T18:57:53.841Z,97193.95
2019-02-11T19:00:20.738Z,97201.45
2019-02-11T19:02:50.506Z,97199.77
2019-02-11T19:05:17.004Z,97201.77
2019-02-11T19:07:44.795Z,97217.20
2019-02-11T19:10:13.769Z,97219.30
2019-02-11T19:12:42.419Z,97216.28
2019-02-11T19:15:14.648Z,97228.53
2019-02-11T19:17:41.558Z,97223.80
2019-02-11T19:20:15.263Z,97239.53
2019-02-11T19:22:45.952Z,97254.67
2019-02-11T19:25:17.563Z,97229.48
2019-02-11T19:27:44.252Z,97248.06
2019-02-11T19:30:14.321Z,97242.66
2019-02-11T19:32:46.084Z,97251.86
2019-02-11T19:35:13.915Z,97256.99
2019-02-11T19:37:40.859Z,97268.20
2019-02-11T19:40:09.570Z,97278.28
2019-02-11T19:42:38.316Z,97281.81
2019-02-11T19:45:12.413Z,97288.15
2019-02-11T19:47:40.457Z,97277.94
2019-02-11T19:50:07.245Z,97286.47
2019-02-11T19:52:34.275Z,97304.66
2019-02-11T19:55:01.325Z,97297.34
2019-02-11T19:57:28.941Z,97306.16
2019-02-11T20:00:00.053Z,97306.27
2019-02-11T20:05:07.797Z,97305.98
2019-02-11T20:07:34.409Z,97316.52
2019-02-11T20:10:01.209Z,97311.72
2019-02-11T20:12:27.852Z,97323.26
2019-02-11T20:14:55.685Z,97322.58
2019-02-11T20:17:22.276Z,97330.53
2019-02-11T20:19:48.914Z,97342.49
2019-02-11T20:22:15.777Z,97341.30
2019-02-11T20:24:42.613Z,97340.77
2019-02-11T20:27:09.268Z,97343.60
2019-02-11T20:29:35.869Z,97347.33
2019-02-11T20:32:02.742Z,97352.29
2019-02-11T20:34:30.170Z,97355.89
2019-02-11T20:36:56.819Z,97358.02
2019-02-11T20:39:23.463Z,97365.86
2019-02-11T20:41:50.272Z,97368.86
2019-02-11T20:44:16.854Z,97366.30
2019-02-11T20:46:43.511Z,97366.98
2019-02-11T20:49:11.021Z,97359.59
2019-02-11T20:51:37.961Z,97378.66
2019-02-11T20:54:04.633Z,97384.98
2019-02-11T20:56:31.301Z,97379.33
2019-02-11T20:58:58.055Z,97378.28
2019-02-11T21:01:24.914Z,97376.34
2019-02-11T21:03:51.576Z,97377.92
2019-02-11T21:06:18.172Z,97389.81
2019-02-11T21:08:44.766Z,97382.98
2019-02-11T21:11:12.653Z,97400.33
2019-02-11T21:13:39.384Z,97393.02
2019-02-11T21:16:06.566Z,97393.15
2019-02-11T21:18:33.336Z,97391.16
2019-02-11T21:21:00.721Z,97390.55
2019-02-11T21:23:27.854Z,97386.41
2019-02-11T21:25:54.506Z,97396.72
2019-02-11T21:28:21.139Z,97408.56
2019-02-11T21:30:48.022Z,97415.05
2019-02-11T21:33:14.755Z,97411.41
2019-02-11T21:35:41.685Z,97407.76
2019-02-11T21:38:08.573Z,97416.78
2019-02-11T21:40:35.697Z,97417.13
2019-02-11T21:43:03.017Z,97414.59
2019-02-11T21:45:31.135Z,97408.78
2019-02-11T21:47:57.801Z,97420.97
2019-02-11T21:50:26.806Z,97418.20
2019-02-11T21:52:53.290Z,97422.84
2019-02-11T21:55:19.942Z,97424.36
2019-02-11T21:57:46.958Z,97432.01
2019-02-11T22:00:13.837Z,97431.05
2019-02-11T22:02:40.591Z,97446.30
2019-02-11T22:05:07.284Z,97436.12
2019-02-11T22:07:34.202Z,97442.47
2019-02-11T22:10:01.609Z,97446.63
2019-02-11T22:12:28.253Z,97456.16
2019-02-11T22:14:55.164Z,97468.44
2019-02-11T22:17:21.865Z,97465.66
2019-02-11T22:19:48.859Z,97458.28
2019-02-11T22:22:15.650Z,97460.76
2019-02-11T22:24:42.297Z,97472.81
2019-02-11T22:27:08.883Z,97473.14
2019-02-11T22:29:36.110Z,97464.03
2019-02-11T22:32:02.926Z,97478.37
2019-02-11T22:34:29.694Z,97471.16
2019-02-11T22:36:56.306Z,97474.53
2019-02-11T22:39:23.055Z,97476.98
2019-02-11T22:41:50.011Z,97477.48
2019-02-11T22:44:16.797Z,97482.01
2019-02-11T22:46:43.399Z,97487.92
2019-02-11T22:49:11.656Z,97495.44
2019-02-11T22:51:40.356Z,97503.20
2019-02-11T22:54:07.419Z,97500.33
2019-02-11T22:56:35.024Z,97495.04
2019-02-11T22:59:02.999Z,97507.25
2019-02-11T23:01:32.209Z,97521.02
2019-02-11T23:04:00.016Z,97520.02
2019-02-11T23:06:28.026Z,97529.34
2019-02-11T23:08:56.290Z,97536.75
2019-02-11T23:11:24.024Z,97538.45
2019-02-11T23:13:53.515Z,97536.80
2019-02-11T23:16:22.863Z,97540.68
2019-02-11T23:18:56.069Z,97545.63
2019-02-11T23:21:24.361Z,97545.36
2019-02-11T23:23:53.221Z,97545.36
2019-02-11T23:26:20.947Z,97547.02
2019-02-11T23:28:48.205Z,97543.08
2019-02-11T23:31:15.555Z,97556.70
2019-02-11T23:33:46.385Z,97548.06
2019-02-11T23:36:11.608Z,97560.39
2019-02-11T23:38:39.139Z,97570.70
2019-02-11T23:41:07.072Z,97572.80
2019-02-11T23:43:34.889Z,97567.12
2019-02-11T23:46:01.554Z,97568.91
2019-02-11T23:48:29.797Z,97576.87
2019-02-11T23:51:00.460Z,97577.85
2019-02-11T23:53:25.387Z,97594.73
2019-02-11T23:55:52.261Z,97586.95
2019-02-11T23:58:18.853Z,97594.56
